| time (UTC) | temp C | wind direction | speed KPH | gust KPH | rain 1hr cm | rain 24hr cm | rain mn cm | humidity % | barometer mb |
| 20260506183107 | 14 | 288 | 0.0 | 0.0 | 0.03 | 0.69 | 0.69 | 94 | 1007.0 |
| 20260506181601 | 14 | 274 | 0.0 | 0.0 | 0.03 | 0.69 | 0.69 | 94 | 1007.4 |
| 20260506180055 | 14 | 240 | 0.0 | 0.0 | 0.08 | 0.69 | 0.69 | 93 | 1007.6 |
| 20260506174554 | 14 | 281 | 0.0 | 0.0 | 0.05 | 0.66 | 0.66 | 93 | 1007.5 |
| 20260506173059 | 14 | 256 | 0.0 | 0.0 | 0.08 | 0.66 | 0.66 | 93 | 1007.6 |
| 20260506171553 | 14 | 286 | 0.0 | 0.0 | 0.08 | 0.66 | 0.66 | 93 | 1007.5 |
| 20260506170057 | 14 | 287 | 0.0 | 0.0 | 0.08 | 0.61 | 0.61 | 93 | 1007.5 |
| 20260506164606 | 14 | 332 | 0.0 | 0.0 | 0.15 | 0.61 | 0.61 | 93 | 1007.5 |
| 20260506163059 | 13 | 312 | 0.0 | 0.0 | 0.20 | 0.58 | 0.58 | 93 | 1007.5 |
| 20260506161550 | 13 | 29 | 0.0 | 0.0 | 0.23 | 0.58 | 0.58 | 93 | 1007.7 |
| 20260506160055 | 13 | 290 | 0.0 | 0.0 | 0.18 | 0.53 | 0.53 | 93 | 1007.8 |
| 20260506154549 | 13 | 288 | 0.0 | 0.0 | 0.13 | 0.46 | 0.46 | 93 | 1007.9 |
| 20260506153045 | 13 | 298 | 0.0 | 0.0 | 0.10 | 0.38 | 0.38 | 93 | 1008.2 |
| 20260506151545 | 13 | 285 | 0.0 | 0.0 | 0.13 | 0.36 | 0.36 | 92 | 1008.0 |
| 20260506150053 | 13 | 290 | 0.0 | 0.0 | 0.15 | 0.36 | 0.36 | 92 | 1008.0 |
| 20260506144542 | 14 | 299 | 0.0 | 0.0 | 0.18 | 0.33 | 0.33 | 92 | 1008.0 |
| 20260506143041 | 13 | 37 | 0.0 | 0.0 | 0.18 | 0.28 | 0.28 | 92 | 1008.0 |
| 20260506141543 | 13 | 290 | 0.0 | 0.0 | 0.18 | 0.23 | 0.23 | 91 | 1008.5 |
| 20260506140037 | 13 | 257 | 0.0 | 0.0 | 0.18 | 0.20 | 0.20 | 91 | 1008.6 |
| 20260506134536 | 14 | 262 | 0.0 | 0.0 | 0.15 | 0.15 | 0.15 | 90 | 1008.7 |
| 20260506133040 | 14 | 285 | 0.0 | 0.0 | 0.10 | 0.10 | 0.10 | 89 | 1008.9 |
| 20260506131532 | 14 | 253 | 0.0 | 0.0 | 0.05 | 0.05 | 0.05 | 88 | 1009.1 |
| 20260506130032 | 15 | 291 | 0.0 | 0.0 | 0.03 | 0.03 | 0.03 | 87 | 1008.9 |
| 20260506124530 | 15 | 236 | 0.0 | 0.0 | 0.00 | 0.00 | 0.00 | 85 | 1008.8 |
| 20260506123028 | 15 | 307 | 0.0 | 0.0 | 0.00 | 0.00 | 0.00 | 84 | 1008.5 |
| 20260506121527 | 15 | 338 | 0.0 | 0.0 | 0.00 | 0.00 | 0.00 | 83 | 1008.7 |
| 20260506120046 | 15 | 327 | 0.0 | 0.0 | 0.00 | 0.00 | 0.00 | 81 | 1008.7 |
| 20260506114521 | 16 | 259 | 0.0 | 0.0 | 0.00 | 0.00 | 0.00 | 77 | 1008.9 |
| 20260506113020 | 16 | 342 | 0.0 | 0.0 | 0.00 | 0.00 | 0.00 | 76 | 1008.7 |
| 20260506111519 | 16 | 293 | 0.0 | 0.0 | 0.00 | 0.00 | 0.00 | 75 | 1008.7 |
| 20260506110018 | 16 | 284 | 0.0 | 3.2 | 0.00 | 0.00 | 0.00 | 74 | 1008.7 |
| 20260506104527 | 16 | 203 | 0.0 | 0.0 | 0.00 | 0.00 | 0.00 | 73 | 1008.2 |
| 20260506103034 | 16 | 307 | 0.0 | 0.0 | 0.00 | 0.00 | 0.00 | 72 | 1008.4 |
| 20260506101513 | 16 | 82 | 0.0 | 0.0 | 0.00 | 0.00 | 0.00 | 71 | 1008.2 |
| 20260506100012 | 16 | 311 | 0.0 | 0.0 | 0.00 | 0.00 | 0.00 | 70 | 1008.5 |
| 20260506094512 | 16 | 285 | 0.0 | 0.0 | 0.00 | 0.00 | 0.00 | 70 | 1008.5 |
| 20260506093017 | 16 | 280 | 0.0 | 0.0 | 0.00 | 0.00 | 0.00 | 69 | 1008.3 |
| 20260506091508 | 16 | 295 | 0.0 | 0.0 | 0.00 | 0.00 | 0.00 | 68 | 1008.5 |
| 20260506090005 | 16 | 297 | 0.0 | 0.0 | 0.00 | 0.00 | 0.00 | 67 | 1008.3 |
| 20260506084504 | 16 | 288 | 0.0 | 1.6 | 0.00 | 0.00 | 0.00 | 67 | 1008.6 |
| 20260506083004 | 17 | 267 | 0.0 | 0.0 | 0.00 | 0.00 | 0.00 | 66 | 1008.6 |
| 20260506081503 | 17 | 297 | 0.0 | 0.0 | 0.00 | 0.00 | 0.00 | 65 | 1008.6 |
| 20260506080104 | 17 | 254 | 0.0 | 0.0 | 0.00 | 0.00 | 0.00 | 64 | 1008.7 |
| 20260506073056 | 17 | 220 | 0.0 | 0.0 | 0.00 | 0.00 | 0.00 | 62 | 1009.0 |
| 20260506071558 | 17 | 227 | 0.0 | 0.0 | 0.00 | 0.00 | 0.00 | 62 | 1009.0 |
| 20260506061549 | 17 | 288 | 0.0 | 0.0 | 0.00 | 0.00 | 0.00 | 60 | 1009.5 |
| 20260506044540 | 18 | 226 | 0.0 | 0.0 | 0.00 | 0.00 | 0.00 | 56 | 1009.9 |
| 20260506043044 | 18 | 238 | 0.0 | 0.0 | 0.00 | 0.00 | 0.00 | 56 | 1009.8 |
| 20260506041538 | 18 | 278 | 0.0 | 0.0 | 0.00 | 0.00 | 0.00 | 56 | 1009.9 |
| 20260506040037 | 18 | 291 | 0.0 | 0.0 | 0.00 | 0.00 | 0.00 | 57 | 1009.9 |
| 20260506034535 | 18 | 278 | 0.0 | 0.0 | 0.00 | 0.00 | 0.00 | 58 | 1010.0 |
| 20260506033034 | 18 | 324 | 0.0 | 0.0 | 0.00 | 0.00 | 0.00 | 58 | 1010.0 |
| 20260506031541 | 18 | 255 | 0.0 | 0.0 | 0.00 | 0.00 | 0.00 | 58 | 1010.0 |
| 20260506030034 | 18 | 307 | 0.0 | 0.0 | 0.00 | 0.00 | 0.00 | 56 | 1010.0 |
| 20260506024537 | 18 | 332 | 0.0 | 0.0 | 0.00 | 0.00 | 0.00 | 55 | 1010.1 |
| 20260506023051 | 19 | 306 | 0.0 | 0.0 | 0.00 | 0.00 | 0.00 | 53 | 1010.1 |
| 20260506021559 | 20 | 309 | 0.0 | 0.0 | 0.00 | 0.00 | 0.00 | 52 | 1010.2 |
| 20260506020031 | 20 | 287 | 0.0 | 0.0 | 0.00 | 0.00 | 0.00 | 51 | 1010.2 |
| 20260506014530 | 20 | 285 | 0.0 | 0.0 | 0.00 | 0.00 | 0.00 | 50 | 1010.1 |
| 20260506013034 | 20 | 294 | 0.0 | 0.0 | 0.00 | 0.00 | 0.00 | 49 | 1009.9 |
| 20260506011530 | 21 | 302 | 0.0 | 0.0 | 0.00 | 0.00 | 0.00 | 49 | 1009.8 |
| 20260506010029 | 21 | 281 | 0.0 | 0.0 | 0.00 | 0.00 | 0.00 | 48 | 1009.6 |
| 20260506004529 | 21 | 274 | 0.0 | 0.0 | 0.00 | 0.00 | 0.00 | 49 | 1009.4 |
| 20260506003028 | 21 | 244 | 0.0 | 0.0 | 0.00 | 0.00 | 0.00 | 48 | 1009.2 |
| 20260506001527 | 21 | 278 | 0.0 | 0.0 | 0.00 | 0.00 | 0.00 | 48 | 1009.1 |
| 20260506000026 | 21 | 302 | 0.0 | 0.0 | 0.00 | 0.00 | 0.00 | 47 | 1009.0 |
| 20260505234526 | 22 | 235 | 0.0 | 0.0 | 0.00 | 0.00 | 0.00 | 44 | 1008.9 |
| 20260505233027 | 22 | 235 | 0.0 | 0.0 | 0.00 | 0.00 | 0.00 | 44 | 1008.9 |
| 20260505231541 | 22 | 236 | 0.0 | 0.0 | 0.00 | 0.00 | 0.00 | 43 | 1008.9 |
| 20260505230027 | 22 | 250 | 0.0 | 0.0 | 0.00 | 0.00 | 0.00 | 43 | 1008.9 |
| 20260505224523 | 22 | 245 | 0.0 | 0.0 | 0.00 | 0.00 | 0.00 | 42 | 1008.7 |
| 20260505223022 | 22 | 258 | 0.0 | 0.0 | 0.00 | 0.00 | 0.00 | 43 | 1008.6 |
| 20260505221522 | 22 | 272 | 0.0 | 9.7 | 0.00 | 0.00 | 0.00 | 42 | 1008.6 |
| 20260505220023 | 23 | 188 | 0.0 | 9.7 | 0.00 | 0.00 | 0.00 | 42 | 1008.5 |
| 20260505214520 | 23 | 286 | 0.0 | 9.7 | 0.00 | 0.00 | 0.00 | 40 | 1008.3 |
| 20260505213028 | 23 | 276 | 0.0 | 0.0 | 0.00 | 0.00 | 0.00 | 44 | 1008.4 |
| 20260505211519 | 23 | 217 | 0.0 | 0.0 | 0.00 | 0.00 | 0.00 | 43 | 1008.4 |
| 20260505210017 | 23 | 207 | 0.0 | 6.4 | 0.00 | 0.00 | 0.00 | 39 | 1008.2 |
| 20260505204515 | 23 | 243 | 1.6 | 9.7 | 0.00 | 0.00 | 0.00 | 39 | 1007.9 |
| 20260505203022 | 24 | 292 | 0.0 | 0.0 | 0.00 | 0.00 | 0.00 | 39 | 1008.0 |
| 20260505201527 | 25 | 302 | 0.0 | 12.9 | 0.00 | 0.00 | 0.00 | 37 | 1007.9 |
| 20260505200013 | 26 | 248 | 1.6 | 8.0 | 0.00 | 0.00 | 0.00 | 36 | 1007.8 |
| 20260505194510 | 26 | 282 | 1.6 | 11.3 | 0.00 | 0.00 | 0.00 | 36 | 1007.8 |
| 20260505193009 | 25 | 319 | 0.0 | 9.7 | 0.00 | 0.00 | 0.00 | 36 | 1008.1 |
| 20260505191511 | 26 | 250 | 1.6 | 12.9 | 0.00 | 0.00 | 0.00 | 35 | 1008.3 |
| 20260505190011 | 25 | 221 | 0.0 | 11.3 | 0.00 | 0.00 | 0.00 | 36 | 1008.8 |
| 20260505184506 | 26 | 226 | 1.6 | 9.7 | 0.00 | 0.00 | 0.00 | 36 | 1008.7 |